Time;durP1;ratioP1;P1;durP2;ratioP2;P2;SDS_P1;SDS_P2;PMS_P1;PMS_P2;Temp;Humidity;BMP_temperature;BMP_pressure;BME280_temperature;BME280_humidity;BME280_pressure;Samples;Min_cycle;Max_cycle;Signal;HPM_P1;HPM_P2
2023/10/05 00:01:18;;;;;;;;;;;;;;;16.66;54.81;101574.19;4964376;28;1186;-57
2023/10/05 00:03:44;;;;;;;;;;;;;;;17.84;54.79;101568.28;4957255;29;1963;-59
2023/10/05 00:06:16;;;;;;;;;;;;;;;17.28;55.40;101566.69;4947963;29;1046;-59
2023/10/05 00:08:49;;;;;;;;;;;;;;;16.97;55.28;101566.34;4957620;29;1039;-58
2023/10/05 00:11:23;;;;;;;;;;;;;;;16.81;54.89;101568.03;4956210;29;1170;-58
2023/10/05 00:14:12;;;;;;;;;;;;;;;16.72;54.85;101567.66;4946400;29;995;-58
2023/10/05 00:16:38;;;;;;;;;;;;;;;17.12;55.55;101573.94;4958670;28;1196;-58
2023/10/05 00:19:09;;;;;;;;;;;;;;;17.65;54.94;101567.88;4958728;29;1025;-59
2023/10/05 00:21:35;;;;;;;;;;;;;;;17.11;55.44;101561.28;4957706;29;1040;-58
2023/10/05 00:24:06;;;;;;;;;;;;;;;16.92;55.13;101569.03;4950575;29;1910;-57
2023/10/05 00:26:35;;;;;;;;;;;;;;;16.77;55.02;101569.63;4952231;29;1033;-58
2023/10/05 00:29:07;;;;;;;;;;;;;;;16.66;54.78;101568.69;4950622;29;1117;-57
2023/10/05 00:31:38;;;;;;;;;;;;;;;17.40;55.43;101572.88;4945785;29;1156;-58
2023/10/05 00:34:08;;;;;;;;;;;;;;;17.37;55.21;101576.13;4958641;28;1025;-58
2023/10/05 00:36:35;;;;;;;;;;;;;;;16.95;55.50;101571.25;4946106;29;922;-56
2023/10/05 00:39:02;;;;;;;;;;;;;;;16.82;55.02;101577.13;4958415;29;1148;-57
2023/10/05 00:41:28;;;;;;;;;;;;;;;17.57;55.23;101566.41;4956738;29;1061;-57
2023/10/05 00:43:53;;;;;;;;;;;;;;;17.39;55.15;101570.34;4956571;29;1923;-58
2023/10/05 00:46:20;;;;;;;;;;;;;;;17.04;55.27;101577.97;4958490;29;1065;-58
2023/10/05 00:51:32;;;;;;;;;;;;;;;16.69;54.93;101570.94;4948212;29;1133;-58
2023/10/05 00:53:58;;;;;;;;;;;;;;;16.69;54.46;101567.34;4951473;29;1257;-59
2023/10/05 00:56:24;;;;;;;;;;;;;;;16.61;55.17;101579.59;4938093;29;1292;-59
2023/10/05 00:58:55;;;;;;;;;;;;;;;17.78;54.79;101571.00;4954035;29;1108;-58
2023/10/05 01:01:27;;;;;;;;;;;;;;;17.12;55.68;101570.34;4930469;29;1213;-57
2023/10/05 01:09:15;;;;;;;;;;;;;;;16.66;55.25;101571.44;4964309;29;1054;-58
2023/10/05 01:11:50;;;;;;;;;;;;;;;17.68;54.97;101565.41;4962098;28;1197;-57
2023/10/05 01:14:17;;;;;;;;;;;;;;;17.06;55.72;101563.97;4953464;28;1149;-58
2023/10/05 01:16:43;;;;;;;;;;;;;;;16.87;55.14;101563.44;4960656;28;1057;-57
2023/10/05 01:19:09;;;;;;;;;;;;;;;16.73;55.22;101565.75;4955602;28;1062;-57
2023/10/05 01:21:35;;;;;;;;;;;;;;;16.68;54.74;101566.50;4962856;28;1261;-58
2023/10/05 01:24:00;;;;;;;;;;;;;;;17.33;55.41;101550.22;4959499;28;1938;-56
2023/10/05 01:26:25;;;;;;;;;;;;;;;17.41;54.95;101560.75;4961514;28;1435;-59
2023/10/05 01:28:51;;;;;;;;;;;;;;;16.98;55.35;101562.50;4964153;29;1085;-60
2023/10/05 01:31:17;;;;;;;;;;;;;;;16.76;55.30;101560.56;4964308;28;1129;-60
2023/10/05 01:33:43;;;;;;;;;;;;;;;16.66;54.91;101560.47;4964145;28;1057;-59
2023/10/05 01:36:10;;;;;;;;;;;;;;;17.13;55.68;101555.53;4962793;28;1021;-60
2023/10/05 01:38:37;;;;;;;;;;;;;;;17.65;54.60;101560.44;4964380;29;1136;-60
2023/10/05 01:41:04;;;;;;;;;;;;;;;17.13;55.34;101558.28;4964029;28;1133;-59
2023/10/05 01:43:30;;;;;;;;;;;;;;;16.87;55.22;101566.19;4963728;29;1906;-60
2023/10/05 01:45:56;;;;;;;;;;;;;;;16.76;54.97;101574.31;4957898;29;1089;-59
2023/10/05 01:48:26;;;;;;;;;;;;;;;16.68;54.86;101565.69;4958568;29;1006;-60
2023/10/05 01:50:51;;;;;;;;;;;;;;;16.56;54.55;101560.31;4962424;29;1025;-60
2023/10/05 01:53:18;;;;;;;;;;;;;;;17.52;55.26;101560.88;4979230;28;1118;-61
2023/10/05 01:55:49;;;;;;;;;;;;;;;17.45;55.09;101564.66;4963841;28;1078;-61
2023/10/05 01:58:23;;;;;;;;;;;;;;;16.98;55.48;101573.50;4962882;28;1603;-59
2023/10/05 02:00:49;;;;;;;;;;;;;;;16.82;55.21;101575.22;4961061;28;1186;-59
2023/10/05 02:03:17;;;;;;;;;;;;;;;16.66;54.88;101568.69;4963957;28;1910;-58
2023/10/05 02:05:44;;;;;;;;;;;;;;;16.61;54.81;101574.13;4956527;29;1117;-61
2023/10/05 02:08:09;;;;;;;;;;;;;;;17.46;55.52;101576.50;4958743;28;1177;-60
2023/10/05 02:10:40;;;;;;;;;;;;;;;17.30;55.26;101574.69;4962654;29;1209;-61
2023/10/05 02:13:11;;;;;;;;;;;;;;;16.91;55.57;101572.88;4955357;28;1054;-61
2023/10/05 02:15:40;;;;;;;;;;;;;;;16.80;54.87;101577.38;4962813;29;1375;-59
2023/10/05 02:18:39;;;;;;;;;;;;;;;16.65;54.91;101580.75;4947867;29;1110;-59
2023/10/05 02:23:29;;;;;;;;;;;;;;;17.43;55.09;101574.25;4948414;29;1969;-61
2023/10/05 02:26:00;;;;;;;;;;;;;;;16.99;55.40;101583.41;4958197;29;942;-60
2023/10/05 02:28:25;;;;;;;;;;;;;;;16.80;55.29;101582.84;4960455;29;1112;-59
2023/10/05 02:30:54;;;;;;;;;;;;;;;16.60;55.06;101576.00;4960408;29;1120;-60
2023/10/05 02:33:27;;;;;;;;;;;;;;;16.70;55.56;101583.56;4948262;29;1030;-60
2023/10/05 02:35:59;;;;;;;;;;;;;;;17.76;54.57;101575.09;4959041;29;1223;-59
2023/10/05 02:38:25;;;;;;;;;;;;;;;17.11;55.53;101583.28;4950379;29;915;-59
2023/10/05 02:41:03;;;;;;;;;;;;;;;16.86;55.23;101586.53;4959139;29;1262;-59
2023/10/05 02:43:29;;;;;;;;;;;;;;;16.74;54.89;101586.63;4959108;29;1989;-59
2023/10/05 02:45:58;;;;;;;;;;;;;;;17.44;55.32;101584.97;4960493;29;1185;-62
2023/10/05 02:48:24;;;;;;;;;;;;;;;17.44;54.88;101582.22;4958030;29;1061;-60
2023/10/05 02:50:52;;;;;;;;;;;;;;;17.01;55.47;101592.22;4958219;29;1177;-60
2023/10/05 02:53:18;;;;;;;;;;;;;;;16.84;55.15;101594.19;4949556;29;1112;-60
2023/10/05 02:55:51;;;;;;;;;;;;;;;16.68;55.08;101588.47;4952520;29;2103;-60
2023/10/05 02:58:17;;;;;;;;;;;;;;;16.56;54.91;101596.00;4951552;29;1166;-60
2023/10/05 03:00:44;;;;;;;;;;;;;;;17.26;55.44;101590.84;4954276;29;1077;-59
2023/10/05 03:03:12;;;;;;;;;;;;;;;17.46;54.98;101590.25;4953212;29;1980;-59
2023/10/05 03:05:41;;;;;;;;;;;;;;;17.03;55.31;101606.53;4958566;29;1113;-60
2023/10/05 03:08:09;;;;;;;;;;;;;;;16.83;55.05;101603.50;4958723;29;1235;-60
2023/10/05 03:10:34;;;;;;;;;;;;;;;16.89;55.46;101602.53;4959948;29;1216;-59
2023/10/05 03:13:02;;;;;;;;;;;;;;;17.82;54.58;101603.50;4954583;29;1116;-58
2023/10/05 03:15:28;;;;;;;;;;;;;;;17.16;55.41;101610.81;4952283;28;1317;-58
2023/10/05 03:17:58;;;;;;;;;;;;;;;16.93;55.07;101596.25;4968072;28;1132;-58
2023/10/05 03:20:24;;;;;;;;;;;;;;;16.73;55.22;101604.19;4959448;29;1205;-59
2023/10/05 03:22:54;;;;;;;;;;;;;;;16.70;54.71;101611.03;4959598;29;2326;-58
2023/10/05 03:25:21;;;;;;;;;;;;;;;17.05;55.53;101601.59;4946234;29;1327;-58
2023/10/05 03:27:48;;;;;;;;;;;;;;;17.60;55.00;101596.97;4946262;28;1537;-62
2023/10/05 03:30:14;;;;;;;;;;;;;;;17.08;55.24;101601.09;4958029;28;1254;-56
2023/10/05 03:32:41;;;;;;;;;;;;;;;16.86;55.32;101609.31;4956056;29;1165;-59
2023/10/05 03:35:11;;;;;;;;;;;;;;;16.71;55.12;101612.69;4952446;29;1405;-56
2023/10/05 03:37:41;;;;;;;;;;;;;;;16.57;54.87;101611.41;4957832;29;1199;-56
2023/10/05 03:40:19;;;;;;;;;;;;;;;17.31;55.45;101620.34;4958114;29;1200;-56
2023/10/05 03:42:46;;;;;;;;;;;;;;;17.44;54.97;101615.22;4959126;29;1910;-57
2023/10/05 03:45:16;;;;;;;;;;;;;;;17.08;54.96;101617.59;4957959;29;1328;-58
2023/10/05 03:47:43;;;;;;;;;;;;;;;16.86;54.95;101609.31;4959108;29;1050;-57
2023/10/05 03:50:16;;;;;;;;;;;;;;;16.69;55.01;101620.38;4944816;29;1270;-56
2023/10/05 03:52:44;;;;;;;;;;;;;;;16.61;54.85;101612.56;4946848;29;1097;-56
2023/10/05 03:55:10;;;;;;;;;;;;;;;17.75;55.04;101603.69;4956852;28;1293;-54
2023/10/05 03:57:37;;;;;;;;;;;;;;;17.21;55.62;101612.81;4944771;29;1161;-53
2023/10/05 04:00:18;;;;;;;;;;;;;;;16.96;55.36;101613.28;4949904;29;1118;-47
2023/10/05 04:02:45;;;;;;;;;;;;;;;16.81;55.12;101616.66;4951669;29;1910;-55
2023/10/05 04:05:11;;;;;;;;;;;;;;;17.04;55.88;101621.09;4945328;29;1144;-51
2023/10/05 04:07:37;;;;;;;;;;;;;;;17.68;54.75;101619.59;4958500;28;1096;-51
2023/10/05 04:10:05;;;;;;;;;;;;;;;17.13;55.44;101624.25;4958355;29;1057;-54
2023/10/05 04:12:32;;;;;;;;;;;;;;;16.90;55.27;101620.63;4958643;29;1081;-50
2023/10/05 04:15:01;;;;;;;;;;;;;;;16.73;55.21;101621.53;4941533;29;943;-53
2023/10/05 04:17:27;;;;;;;;;;;;;;;16.60;54.95;101622.69;4953109;29;1488;-53
2023/10/05 04:19:52;;;;;;;;;;;;;;;16.56;54.70;101626.19;4958162;29;1025;-50
2023/10/05 04:22:18;;;;;;;;;;;;;;;17.00;55.72;101625.44;4958136;28;1910;-55
2023/10/05 04:24:45;;;;;;;;;;;;;;;17.76;54.82;101628.19;4944987;29;1418;-52
2023/10/05 04:27:11;;;;;;;;;;;;;;;17.05;55.73;101620.84;4944128;29;1392;-55
2023/10/05 04:29:40;;;;;;;;;;;;;;;16.81;55.30;101642.22;4951680;29;1073;-48
2023/10/05 04:32:08;;;;;;;;;;;;;;;16.74;55.18;101633.31;4947385;29;1354;-52
2023/10/05 04:34:33;;;;;;;;;;;;;;;16.59;54.67;101628.44;4954636;29;1159;-52
2023/10/05 04:36:59;;;;;;;;;;;;;;;17.36;56.06;101632.22;4949774;29;1174;-53
2023/10/05 04:39:29;;;;;;;;;;;;;;;17.46;55.20;101628.75;4954026;29;1013;-54
2023/10/05 04:41:55;;;;;;;;;;;;;;;16.79;53.67;101627.06;4949164;28;1985;-55
2023/10/05 04:44:20;;;;;;;;;;;;;;;16.60;51.92;101625.44;4946813;29;1077;-53
2023/10/05 04:46:49;;;;;;;;;;;;;;;16.45;50.80;101635.38;4956459;29;1053;-55
2023/10/05 04:49:18;;;;;;;;;;;;;;;16.33;49.66;101633.56;4958370;29;1076;-55
2023/10/05 04:51:44;;;;;;;;;;;;;;;16.27;48.80;101639.22;4945524;29;1081;-53
2023/10/05 04:54:18;;;;;;;;;;;;;;;17.39;53.03;101639.94;4958391;29;1062;-50
2023/10/05 04:56:47;;;;;;;;;;;;;;;16.74;51.98;101647.88;4945609;29;1018;-51
2023/10/05 05:07:01;;;;;;;;;;;;;;;16.70;51.52;101637.66;4957742;28;1064;-53
2023/10/05 05:09:29;;;;;;;;;;;;;;;16.62;50.12;101652.66;4948119;29;1076;-52
2023/10/05 05:11:56;;;;;;;;;;;;;;;16.42;49.08;101654.03;4951341;29;1209;-50
2023/10/05 05:14:23;;;;;;;;;;;;;;;16.38;48.26;101652.00;4940610;29;1217;-50
2023/10/05 05:16:52;;;;;;;;;;;;;;;17.02;49.89;101662.56;4939098;29;1144;-48
2023/10/05 05:19:17;;;;;;;;;;;;;;;16.62;49.32;101668.28;4950204;29;1093;-53
2023/10/05 05:21:43;;;;;;;;;;;;;;;16.45;48.76;101658.16;4944947;29;1060;-52
2023/10/05 05:24:11;;;;;;;;;;;;;;;17.37;49.56;101657.78;4957081;29;1976;-50
2023/10/05 05:26:37;;;;;;;;;;;;;;;16.71;50.00;101666.78;4953014;29;1200;-45
2023/10/05 05:29:03;;;;;;;;;;;;;;;16.53;48.88;101670.66;4957821;29;1041;-50
2023/10/05 05:31:30;;;;;;;;;;;;;;;17.48;50.00;101675.22;4957094;29;1056;-52
2023/10/05 05:33:56;;;;;;;;;;;;;;;16.85;50.01;101675.50;4958100;29;1309;-51
2023/10/05 05:36:21;;;;;;;;;;;;;;;16.73;48.78;101676.44;4957534;29;1040;-48
2023/10/05 05:38:50;;;;;;;;;;;;;;;16.52;48.22;101677.22;4952836;29;1192;-54
2023/10/05 05:41:16;;;;;;;;;;;;;;;16.53;47.43;101682.44;4946497;29;1407;-49
2023/10/05 05:43:41;;;;;;;;;;;;;;;17.22;48.75;101685.91;4956738;29;1910;-51
2023/10/05 05:46:13;;;;;;;;;;;;;;;16.89;49.58;101683.00;4946761;29;1121;-52
2023/10/05 05:48:39;;;;;;;;;;;;;;;16.64;48.79;101686.19;4951074;29;1134;-50
2023/10/05 05:51:06;;;;;;;;;;;;;;;16.57;48.41;101691.84;4948731;29;1306;-50
2023/10/05 05:53:33;;;;;;;;;;;;;;;17.33;49.49;101684.94;4957667;28;1045;-52
2023/10/05 05:56:01;;;;;;;;;;;;;;;16.83;49.27;101691.38;4947035;29;1022;-53
2023/10/05 05:58:26;;;;;;;;;;;;;;;17.69;49.60;101692.78;4955231;29;1292;-54
2023/10/05 06:00:52;;;;;;;;;;;;;;;17.17;50.14;101699.59;4961004;29;1218;-51
2023/10/05 06:03:20;;;;;;;;;;;;;;;16.90;49.07;101698.41;4959908;29;1913;-54
2023/10/05 06:05:48;;;;;;;;;;;;;;;16.88;48.16;101699.72;4949641;29;1042;-53
2023/10/05 06:08:14;;;;;;;;;;;;;;;16.64;47.72;101699.91;4959986;29;1114;-52
2023/10/05 06:10:43;;;;;;;;;;;;;;;17.44;49.14;101703.22;4949704;29;1160;-50
2023/10/05 06:13:11;;;;;;;;;;;;;;;16.88;49.04;101707.97;4960703;29;1037;-52
2023/10/05 06:15:37;;;;;;;;;;;;;;;16.80;48.18;101703.72;4954154;29;978;-52
2023/10/05 06:18:03;;;;;;;;;;;;;;;16.70;47.44;101704.38;4961315;29;1215;-51
2023/10/05 06:20:28;;;;;;;;;;;;;;;17.56;48.66;101702.28;4957171;28;1346;-51
2023/10/05 06:22:54;;;;;;;;;;;;;;;17.01;48.73;101709.53;4951718;29;1993;-55
2023/10/05 06:25:19;;;;;;;;;;;;;;;16.82;48.21;101708.97;4956149;29;1061;-53
2023/10/05 06:27:46;;;;;;;;;;;;;;;16.83;47.09;101716.13;4948304;29;1033;-55
2023/10/05 06:30:11;;;;;;;;;;;;;;;16.69;46.69;101716.47;4960933;29;1153;-53
2023/10/05 06:32:37;;;;;;;;;;;;;;;17.70;47.92;101722.78;4961025;29;1172;-52
2023/10/05 06:35:03;;;;;;;;;;;;;;;17.14;48.91;101713.81;4951519;29;1037;-51
2023/10/05 06:37:29;;;;;;;;;;;;;;;16.93;48.15;101725.38;4954509;29;1125;-49
2023/10/05 06:39:55;;;;;;;;;;;;;;;16.72;47.53;101715.97;4957378;29;902;-56
2023/10/05 06:42:20;;;;;;;;;;;;;;;16.65;47.24;101726.31;4960084;29;1977;-54
2023/10/05 06:44:46;;;;;;;;;;;;;;;17.55;47.86;101719.84;4949907;29;1188;-52
2023/10/05 06:47:35;;;;;;;;;;;;;;;17.00;48.36;101719.72;4954393;29;1290;-53
2023/10/05 06:50:00;;;;;;;;;;;;;;;16.92;47.39;101722.88;4953422;29;1477;-52
2023/10/05 06:52:25;;;;;;;;;;;;;;;16.69;47.11;101726.63;4959320;29;1060;-48
2023/10/05 06:54:51;;;;;;;;;;;;;;;16.67;46.44;101729.63;4948779;29;1062;-51
2023/10/05 06:57:17;;;;;;;;;;;;;;;17.60;47.86;101733.66;4947038;29;1058;-47
2023/10/05 06:59:42;;;;;;;;;;;;;;;17.02;47.88;101735.94;4948752;29;1156;-51
2023/10/05 07:02:08;;;;;;;;;;;;;;;16.84;47.60;101729.59;4958420;29;1974;-53
2023/10/05 07:04:33;;;;;;;;;;;;;;;16.94;47.40;101731.69;4951978;28;1207;-52
2023/10/05 07:06:59;;;;;;;;;;;;;;;17.29;48.39;101736.00;4947515;29;1117;-53
2023/10/05 07:09:26;;;;;;;;;;;;;;;17.04;48.58;101737.34;4959834;29;1112;-54
2023/10/05 07:11:52;;;;;;;;;;;;;;;16.98;48.18;101743.84;4947674;29;1416;-51
2023/10/05 07:14:19;;;;;;;;;;;;;;;16.93;47.25;101744.59;4948808;29;1072;-54
2023/10/05 07:16:45;;;;;;;;;;;;;;;17.23;48.09;101739.78;4953995;29;1103;-55
2023/10/05 07:19:11;;;;;;;;;;;;;;;17.23;48.71;101745.28;4953125;29;1077;-52
2023/10/05 07:21:37;;;;;;;;;;;;;;;16.96;48.22;101735.03;4953865;29;1109;-52
2023/10/05 07:24:04;;;;;;;;;;;;;;;16.96;47.35;101736.94;4959053;28;1977;-54
2023/10/05 07:26:29;;;;;;;;;;;;;;;16.84;47.04;101735.09;4965147;28;1087;-56
2023/10/05 07:28:55;;;;;;;;;;;;;;;16.83;46.68;101735.34;4955117;28;1240;-48
2023/10/05 07:31:22;;;;;;;;;;;;;;;17.67;47.98;101733.44;4959691;29;1139;-53
2023/10/05 07:33:48;;;;;;;;;;;;;;;17.08;48.40;101726.66;4954717;28;1061;-53
2023/10/05 07:36:14;;;;;;;;;;;;;;;16.95;47.78;101724.31;4952486;29;1034;-51
2023/10/05 07:38:40;;;;;;;;;;;;;;;16.82;47.31;101731.78;4956440;29;1104;-51
2023/10/05 07:41:07;;;;;;;;;;;;;;;17.40;48.49;101731.47;4941626;29;1025;-49
2023/10/05 07:43:33;;;;;;;;;;;;;;;17.24;49.05;101728.53;4959797;29;1977;-53
2023/10/05 07:46:00;;;;;;;;;;;;;;;17.01;48.28;101726.88;4959379;29;1076;-49
2023/10/05 07:48:26;;;;;;;;;;;;;;;17.93;49.00;101729.09;4959843;29;1223;-55
2023/10/05 07:50:51;;;;;;;;;;;;;;;17.49;49.64;101727.22;4958930;29;1091;-55
2023/10/05 07:53:17;;;;;;;;;;;;;;;17.26;49.18;101728.28;4959608;29;1084;-53
2023/10/05 07:55:42;;;;;;;;;;;;;;;17.32;48.78;101730.03;4958716;29;1105;-51
2023/10/05 07:58:08;;;;;;;;;;;;;;;17.20;48.33;101729.31;4947822;29;1154;-50
2023/10/05 08:00:33;;;;;;;;;;;;;;;17.27;47.85;101724.47;4958967;29;1129;-50
2023/10/05 08:02:59;;;;;;;;;;;;;;;17.22;47.84;101732.63;4958792;29;1883;-50
2023/10/05 08:05:24;;;;;;;;;;;;;;;17.13;47.20;101731.41;4957673;29;1141;-49
2023/10/05 08:07:51;;;;;;;;;;;;;;;16.98;47.30;101727.34;4940038;29;1112;-50
2023/10/05 08:10:18;;;;;;;;;;;;;;;17.14;47.24;101724.81;4954235;29;1234;-52
2023/10/05 08:12:44;;;;;;;;;;;;;;;17.21;47.14;101739.22;4958779;29;1181;-55
2023/10/05 08:15:12;;;;;;;;;;;;;;;17.03;47.41;101730.19;4958314;29;1065;-57
2023/10/05 08:17:38;;;;;;;;;;;;;;;17.66;49.23;101732.63;4957855;28;1060;-57
2023/10/05 08:20:05;;;;;;;;;;;;;;;17.19;48.82;101731.22;4956944;29;1085;-53
2023/10/05 08:22:31;;;;;;;;;;;;;;;17.13;48.35;101726.75;4949891;28;1973;-53
2023/10/05 08:25:00;;;;;;;;;;;;;;;17.12;47.18;101727.00;4958476;29;1081;-53
2023/10/05 08:27:26;;;;;;;;;;;;;;;16.95;47.23;101735.28;4957343;29;1125;-52
2023/10/05 08:29:52;;;;;;;;;;;;;;;16.98;46.63;101732.84;4945347;29;1086;-52
2023/10/05 08:32:23;;;;;;;;;;;;;;;16.95;46.40;101738.84;4958559;29;1068;-52
2023/10/05 08:34:48;;;;;;;;;;;;;;;16.85;46.13;101733.19;4957426;29;2278;-54
2023/10/05 08:37:14;;;;;;;;;;;;;;;17.73;47.83;101736.00;4955396;29;1952;-56
2023/10/05 08:39:39;;;;;;;;;;;;;;;17.22;48.23;101738.13;4952136;29;2056;-53
2023/10/05 08:42:08;;;;;;;;;;;;;;;17.18;47.38;101736.97;4947098;29;1906;-54
2023/10/05 08:44:36;;;;;;;;;;;;;;;16.98;47.27;101734.78;4949808;29;1941;-55
2023/10/05 08:47:05;;;;;;;;;;;;;;;16.94;46.83;101731.69;4942559;29;2324;-54
2023/10/05 08:49:33;;;;;;;;;;;;;;;16.85;46.69;101734.00;4950849;29;1952;-52
2023/10/05 08:51:59;;;;;;;;;;;;;;;16.96;46.92;101746.03;4946987;29;2089;-53
2023/10/05 08:54:28;;;;;;;;;;;;;;;17.26;48.21;101726.38;4956297;29;1062;-54
2023/10/05 08:56:53;;;;;;;;;;;;;;;17.13;47.68;101731.41;4957707;29;1091;-52
2023/10/05 08:59:19;;;;;;;;;;;;;;;16.99;47.22;101728.22;4957545;29;1063;-52
2023/10/05 09:01:55;;;;;;;;;;;;;;;16.89;46.85;101726.13;4957320;29;1079;-51
2023/10/05 09:04:43;;;;;;;;;;;;;;;16.92;46.54;101733.88;4944499;29;1906;-53
2023/10/05 09:07:14;;;;;;;;;;;;;;;16.86;46.34;101734.88;4944624;29;1222;-54
2023/10/05 09:09:54;;;;;;;;;;;;;;;16.89;45.78;101731.63;4939028;29;1003;-53
2023/10/05 09:12:41;;;;;;;;;;;;;;;16.75;46.04;101737.44;4946488;29;1098;-54
2023/10/05 09:17:57;;;;;;;;;;;;;;;16.82;45.61;101736.44;4951047;29;1018;-53
2023/10/05 09:20:23;;;;;;;;;;;;;;;16.73;45.70;101742.38;4938521;29;999;-49
2023/10/05 09:22:53;;;;;;;;;;;;;;;16.78;45.95;101747.09;4951646;29;2660;-52
2023/10/05 09:25:26;;;;;;;;;;;;;;;17.33;47.74;101737.16;4957438;29;1124;-54
2023/10/05 09:27:57;;;;;;;;;;;;;;;17.02;47.68;101739.50;4955402;28;1014;-52
2023/10/05 09:30:22;;;;;;;;;;;;;;;16.98;46.87;101743.84;4951753;29;1002;-54
2023/10/05 09:32:48;;;;;;;;;;;;;;;16.80;46.93;101741.34;4954889;29;1170;-53
2023/10/05 09:35:33;;;;;;;;;;;;;;;16.86;46.47;101727.44;4953209;29;1088;-55
2023/10/05 09:37:58;;;;;;;;;;;;;;;16.86;46.53;101726.63;4948984;29;1033;-51
2023/10/05 09:40:24;;;;;;;;;;;;;;;16.88;46.33;101732.69;4951967;29;986;-55
2023/10/05 09:42:50;;;;;;;;;;;;;;;18.24;48.13;101723.88;4953401;29;2671;-50
2023/10/05 09:45:17;;;;;;;;;;;;;;;17.41;49.09;101727.66;4960443;29;1113;-51
2023/10/05 09:47:43;;;;;;;;;;;;;;;17.19;48.15;101731.22;4948344;29;1021;-54
2023/10/05 09:50:12;;;;;;;;;;;;;;;17.14;47.46;101720.16;4961345;29;1136;-53
2023/10/05 09:52:38;;;;;;;;;;;;;;;17.11;46.53;101715.19;4959219;29;2412;-51
2023/10/05 09:55:05;;;;;;;;;;;;;;;17.84;47.84;101730.59;4952000;29;1126;-56
2023/10/05 09:57:31;;;;;;;;;;;;;;;17.32;48.17;101721.78;4944866;29;998;-55
2023/10/05 09:59:59;;;;;;;;;;;;;;;17.20;47.23;101712.81;4960926;29;1119;-58
2023/10/05 10:02:34;;;;;;;;;;;;;;;17.12;46.72;101714.06;4959069;29;1906;-56
2023/10/05 10:05:05;;;;;;;;;;;;;;;17.05;46.60;101719.75;4948591;28;923;-55
2023/10/05 10:07:32;;;;;;;;;;;;;;;17.04;46.24;101709.03;4954419;29;1053;-54
2023/10/05 10:09:58;;;;;;;;;;;;;;;16.95;46.14;101705.06;4952258;29;839;-55
2023/10/05 10:12:25;;;;;;;;;;;;;;;16.95;45.84;101705.06;4947591;29;978;-53
2023/10/05 10:14:51;;;;;;;;;;;;;;;17.09;46.18;101704.41;4960651;29;1093;-54
2023/10/05 10:17:27;;;;;;;;;;;;;;;17.51;47.75;101707.69;4959834;29;1220;-55
2023/10/05 10:20:05;;;;;;;;;;;;;;;17.15;47.61;101699.00;4946605;29;1062;-56
2023/10/05 10:22:45;;;;;;;;;;;;;;;17.08;46.85;101697.28;4941083;29;2701;-58
2023/10/05 10:25:30;;;;;;;;;;;;;;;17.96;47.57;101687.28;4972424;28;1014;-50
2023/10/05 10:28:14;;;;;;;;;;;;;;;17.51;48.12;101688.44;4958652;28;1041;-57
2023/10/05 10:30:43;;;;;;;;;;;;;;;17.27;47.59;101680.47;4941608;29;1039;-55
2023/10/05 10:33:24;;;;;;;;;;;;;;;17.17;46.70;101680.34;4954114;29;1033;-54
2023/10/05 10:35:50;;;;;;;;;;;;;;;17.27;46.83;101670.28;4952353;29;1116;-55
2023/10/05 10:38:17;;;;;;;;;;;;;;;17.70;48.07;101676.00;4962500;28;1114;-53
2023/10/05 10:40:53;;;;;;;;;;;;;;;17.42;47.54;101666.09;4951816;28;999;-52
2023/10/05 10:43:20;;;;;;;;;;;;;;;17.21;47.06;101656.78;4962713;28;1905;-53
2023/10/05 10:45:46;;;;;;;;;;;;;;;17.08;46.95;101658.81;4956026;29;1137;-54
2023/10/05 10:48:22;;;;;;;;;;;;;;;17.24;46.05;101653.50;4951624;29;1096;-51
2023/10/05 10:50:52;;;;;;;;;;;;;;;17.06;46.21;101647.22;4956907;29;2288;-54
2023/10/05 10:53:17;;;;;;;;;;;;;;;17.57;47.74;101648.91;4959587;29;868;-54
2023/10/05 10:55:47;;;;;;;;;;;;;;;17.35;47.07;101643.44;4959938;29;1084;-54
2023/10/05 10:58:13;;;;;;;;;;;;;;;17.33;46.56;101645.63;4947876;29;1220;-52
2023/10/05 11:00:56;;;;;;;;;;;;;;;17.30;46.23;101649.72;4953490;29;1200;-52
2023/10/05 11:03:26;;;;;;;;;;;;;;;18.03;47.32;101645.81;4953291;29;1977;-58
2023/10/05 11:05:54;;;;;;;;;;;;;;;17.49;47.60;101636.47;4955256;29;883;-48
2023/10/05 11:08:22;;;;;;;;;;;;;;;17.35;47.23;101638.78;4946645;29;1041;-50
2023/10/05 11:11:06;;;;;;;;;;;;;;;17.26;46.73;101634.81;4960031;29;1096;-49
2023/10/05 11:13:33;;;;;;;;;;;;;;;17.27;46.06;101629.06;4946550;29;1065;-54
2023/10/05 11:15:59;;;;;;;;;;;;;;;18.31;47.27;101617.09;4959737;29;1119;-55
2023/10/05 11:18:30;;;;;;;;;;;;;;;17.68;47.86;101616.84;4945222;29;977;-50
2023/10/05 11:21:16;;;;;;;;;;;;;;;17.44;47.49;101612.47;4959233;29;1876;-51
2023/10/05 11:23:48;;;;;;;;;;;;;;;17.36;46.90;101617.63;4964240;28;1902;-52
2023/10/05 11:26:33;;;;;;;;;;;;;;;17.30;46.44;101615.91;4940354;29;995;-51
2023/10/05 11:28:59;;;;;;;;;;;;;;;17.32;46.03;101611.81;4955956;29;1057;-48
2023/10/05 11:31:26;;;;;;;;;;;;;;;17.41;46.70;101604.75;4949893;29;1175;-47
2023/10/05 11:33:54;;;;;;;;;;;;;;;17.86;48.01;101605.44;4956424;28;1070;-54
2023/10/05 11:36:21;;;;;;;;;;;;;;;17.83;49.33;101605.16;4959264;28;1038;-57
2023/10/05 11:38:57;;;;;;;;;;;;;;;17.61;48.79;101603.28;4959040;29;1271;-57
2023/10/05 11:41:29;;;;;;;;;;;;;;;17.50;47.62;101602.38;4949931;29;1036;-55
2023/10/05 11:43:58;;;;;;;;;;;;;;;17.44;47.12;101604.22;4940308;29;1918;-52
2023/10/05 11:46:24;;;;;;;;;;;;;;;17.29;46.90;101598.56;4952236;29;1116;-56
2023/10/05 11:48:56;;;;;;;;;;;;;;;17.37;46.25;101600.03;4939617;29;1161;-57
2023/10/05 11:51:40;;;;;;;;;;;;;;;17.24;45.98;101601.28;4949839;28;2459;-52
2023/10/05 11:54:07;;;;;;;;;;;;;;;17.20;45.70;101591.88;4953686;29;1128;-45
2023/10/05 11:56:33;;;;;;;;;;;;;;;18.07;47.53;101595.47;4958779;29;1208;-55
2023/10/05 11:59:00;;;;;;;;;;;;;;;17.55;48.14;101588.66;4958767;29;1232;-57
2023/10/05 12:01:26;;;;;;;;;;;;;;;17.40;47.30;101583.88;4958761;29;1066;-57
2023/10/05 12:03:51;;;;;;;;;;;;;;;17.38;46.78;101574.22;4957887;28;1915;-51
2023/10/05 12:06:23;;;;;;;;;;;;;;;17.32;46.42;101581.59;4955265;29;872;-55
2023/10/05 12:08:53;;;;;;;;;;;;;;;17.19;46.39;101579.22;4958797;29;1105;-56
2023/10/05 12:11:25;;;;;;;;;;;;;;;17.22;45.62;101578.72;4946051;29;1060;-55
2023/10/05 12:13:56;;;;;;;;;;;;;;;17.18;45.86;101580.31;4939681;29;999;-54
2023/10/05 12:16:32;;;;;;;;;;;;;;;17.57;46.72;101572.75;4952146;29;1110;-55
2023/10/05 12:19:21;;;;;;;;;;;;;;;17.61;47.71;101578.53;4948050;29;1050;-54
2023/10/05 12:21:46;;;;;;;;;;;;;;;17.40;47.34;101572.88;4952809;29;1895;-53
2023/10/05 12:24:12;;;;;;;;;;;;;;;17.22;46.99;101581.44;4951221;29;1902;-53
2023/10/05 12:26:39;;;;;;;;;;;;;;;17.30;46.29;101575.50;4958241;29;1033;-55
2023/10/05 12:29:13;;;;;;;;;;;;;;;17.15;46.36;101567.91;4949506;29;1171;-53
2023/10/05 12:31:39;;;;;;;;;;;;;;;17.08;46.03;101573.63;4958015;29;1017;-54
2023/10/05 12:34:14;;;;;;;;;;;;;;;17.13;45.53;101572.03;4944972;29;1013;-54
2023/10/05 12:36:49;;;;;;;;;;;;;;;17.28;46.35;101569.44;4957902;29;1041;-54
2023/10/05 12:39:17;;;;;;;;;;;;;;;17.97;47.81;101573.38;4955870;29;986;-53
2023/10/05 12:41:46;;;;;;;;;;;;;;;17.51;47.87;101564.72;4939931;29;1010;-54
2023/10/05 12:44:13;;;;;;;;;;;;;;;17.39;47.41;101568.47;4952247;29;1985;-53
2023/10/05 12:46:41;;;;;;;;;;;;;;;17.36;46.71;101563.47;4939089;29;1056;-52
2023/10/05 12:49:10;;;;;;;;;;;;;;;17.18;46.40;101561.06;4951483;29;1145;-53
2023/10/05 12:51:36;;;;;;;;;;;;;;;18.18;47.79;101565.28;4947941;28;1789;-55
2023/10/05 12:54:28;;;;;;;;;;;;;;;17.70;48.01;101563.25;4952603;28;1204;-55
2023/10/05 12:56:51;;;;;;;;;;;;;;;17.52;47.47;101563.63;4957330;29;1208;-51
2023/10/05 12:59:17;;;;;;;;;;;;;;;17.35;46.95;101560.97;4955734;29;1182;-53
2023/10/05 13:01:42;;;;;;;;;;;;;;;17.34;46.61;101560.16;4952473;29;1058;-59
2023/10/05 13:04:08;;;;;;;;;;;;;;;17.26;46.27;101560.63;4957604;29;1922;-58
2023/10/05 13:06:34;;;;;;;;;;;;;;;17.26;45.66;101553.22;4945523;29;1089;-55
2023/10/05 13:09:04;;;;;;;;;;;;;;;17.04;45.93;101556.00;4958312;29;1080;-56
2023/10/05 13:11:30;;;;;;;;;;;;;;;17.06;45.72;101567.53;4957171;29;1121;-58
2023/10/05 13:13:56;;;;;;;;;;;;;;;17.14;45.67;101555.28;4957430;29;1021;-57
2023/10/05 13:16:21;;;;;;;;;;;;;;;17.06;45.64;101547.50;4957260;28;1077;-55